Forside
METAR-TAF:

METAR-TAF

Lufthavne :

Roskilde Lufthavn

Roskilde, Danmark

Breddekreds: 55-35N, længdekreds: 012-08E, højde: 44 m

Aktuelle vejr

Denne rapport blev lavet for 38 minutter siden, kl. 01:20 UTC
Vind 5 kt fra vest
Temperatur 13°C
Fugtighed 88%
Tryk 1010 hPa
Sigt 10 km eller mere

METAR: EKRK 220120Z AUTO 27005KT 9999 BKN013/// 13/11 Q1010

Tid: 03:58 (01:58 UTC)

Vejrudsigter

Denne rapport blev lavet for 2 timer og 36 minutter siden, kl. 23:22 UTC
Foreløbig gælder fra 22 på 00 UTC til 22 på 09 UTC
Vind 8 kt fra vestnordvest
Sigt 10 km eller mere
Nogle få skyer i en højde af 1500 ft
Brudte skyer i en højde af 3500 ft

TAF: EKRK 212322Z 2200/2209 30008KT 9999 FEW015 BKN035

Vejrobservationer og prognoser fra mere end 4000 lufthavne (METAR og TAF).

De gule og røde prikker repræsenterer de meteorologiske stationer.

Flyt musen over at se navnet på stationen.

Så klik over at se vejr observationer og prognoser.

At skifte det kort: Klik på de grønne knapper med et sort kors for at zoome ind; på den grønne knap med en bindestreg for at zoome ud; eller på de grønne pile for tilstødende kort.


METAR-TAF: